Time;durP1;ratioP1;P1;durP2;ratioP2;P2;SDS_P1;SDS_P2;PMS_P1;PMS_P2;Temp;Humidity;BMP_temperature;BMP_pressure;BME280_temperature;BME280_humidity;BME280_pressure;Samples;Min_cycle;Max_cycle;Signal;HPM_P1;HPM_P2
2022/12/10 00:00:12;;;;;;;44.67;32.33;;;;;;;1.86;70.84;100254.25;675003;29;1095;-82
2022/12/10 00:00:33;;;;;;;44.25;31.60;;;;;;;1.81;70.36;100242.81;672294;29;1098;-82
2022/12/10 00:00:54;;;;;;;43.72;31.42;;;;;;;1.83;70.68;100248.03;675066;29;1134;-82
2022/12/10 00:01:17;;;;;;;45.00;31.97;;;;;;;1.86;70.58;100256.81;677627;29;1114;-82
2022/12/10 00:01:39;;;;;;;45.50;31.73;;;;;;;1.79;70.66;100241.84;677622;29;1291;-82
2022/12/10 00:01:59;;;;;;;42.92;31.13;;;;;;;1.85;70.34;100247.34;675137;29;844;-82
2022/12/10 00:02:20;;;;;;;43.40;31.20;;;;;;;1.81;70.55;100244.47;672511;29;1142;-82
2022/12/10 00:02:40;;;;;;;42.90;31.33;;;;;;;1.87;70.55;100256.03;672513;29;1147;-82
2022/12/10 00:03:01;;;;;;;44.22;31.67;;;;;;;1.82;70.55;100244.56;677739;29;1079;-82
2022/12/10 00:03:22;;;;;;;43.33;31.60;;;;;;;1.85;70.48;100246.44;675085;29;1274;-82
2022/12/10 00:03:43;;;;;;;43.57;31.23;;;;;;;1.83;70.68;100243.78;675097;29;1347;-82
2022/12/10 00:04:04;;;;;;;43.25;31.30;;;;;;;1.88;70.49;100254.31;677661;29;1168;-82
2022/12/10 00:04:24;;;;;;;43.03;31.33;;;;;;;1.82;70.80;100241.13;677651;29;1191;-82
2022/12/10 00:04:45;;;;;;;42.87;31.70;;;;;;;1.82;70.58;100247.16;672446;29;1171;-82
2022/12/10 00:05:09;;;;;;;43.45;31.33;;;;;;;1.85;70.78;100243.88;675190;29;820;-82
2022/12/10 00:05:29;;;;;;;44.40;30.70;;;;;;;1.85;70.55;100247.34;677748;29;835;-82
2022/12/10 00:05:50;;;;;;;43.53;30.30;;;;;;;1.86;70.62;100251.69;677718;29;961;-82
2022/12/10 00:06:18;;;;;;;43.25;30.63;;;;;;;1.86;70.42;100258.50;682950;29;1130;-83
2022/12/10 00:06:40;;;;;;;40.85;30.75;;;;;;;1.83;70.59;100248.03;682574;29;1132;-82
2022/12/10 00:07:01;;;;;;;41.63;31.40;;;;;;;1.83;70.92;100254.06;679950;29;1316;-82
2022/12/10 00:07:21;;;;;;;42.80;31.93;;;;;;;1.82;70.94;100247.16;674715;29;1001;-82
2022/12/10 00:07:42;;;;;;;43.15;32.05;;;;;;;1.82;70.73;100246.28;677650;29;1010;-82
2022/12/10 00:08:03;;;;;;;43.55;31.95;;;;;;;1.84;70.74;100252.38;676385;29;1337;-82
2022/12/10 00:08:23;;;;;;;44.07;32.50;;;;;;;1.82;70.96;100249.72;682909;29;1192;-83
2022/12/10 00:08:44;;;;;;;43.60;31.75;;;;;;;1.83;70.41;100242.91;680316;29;1006;-83
2022/12/10 00:09:09;;;;;;;41.90;30.58;;;;;;;1.83;70.49;100248.03;675023;29;1158;-83
2022/12/10 00:09:29;;;;;;;42.25;30.70;;;;;;;1.85;70.66;100251.59;677696;29;1294;-83
2022/12/10 00:09:50;;;;;;;43.88;31.85;;;;;;;1.84;70.52;100255.81;677722;29;808;-82
2022/12/10 00:10:10;;;;;;;43.60;31.97;;;;;;;1.83;70.97;100259.22;677523;29;1254;-80
2022/12/10 00:10:31;;;;;;;42.45;31.25;;;;;;;1.84;70.65;100255.81;677607;29;1277;-82
2022/12/10 00:10:52;;;;;;;44.20;31.75;;;;;;;1.81;70.95;100247.97;680229;29;848;-82
2022/12/10 00:11:14;;;;;;;44.70;31.50;;;;;;;1.83;70.69;100254.06;680171;29;1205;-82
2022/12/10 00:11:35;;;;;;;44.00;31.50;;;;;;;1.85;70.65;100262.78;674968;29;1206;-82
2022/12/10 00:11:55;;;;;;;44.73;31.90;;;;;;;1.85;70.64;100260.19;675115;29;1049;-82
2022/12/10 00:12:16;;;;;;;46.73;32.53;;;;;;;1.88;70.79;100257.78;677568;29;1295;-82
2022/12/10 00:12:36;;;;;;;46.45;33.03;;;;;;;1.85;71.00;100255.06;680191;29;1447;-83
2022/12/10 00:12:57;;;;;;;44.40;32.22;;;;;;;1.88;70.88;100264.59;682978;29;1125;-83
2022/12/10 00:13:18;;;;;;;44.57;31.37;;;;;;;1.88;70.76;100268.09;682703;29;1227;-81
2022/12/10 00:13:38;;;;;;;44.70;30.20;;;;;;;1.87;70.67;100261.16;677390;29;1993;-81
2022/12/10 00:13:59;;;;;;;44.67;30.70;;;;;;;1.86;70.63;100259.41;677786;29;748;-82
2022/12/10 00:14:20;;;;;;;43.78;31.60;;;;;;;1.89;70.93;100262.13;677640;29;1178;-82
2022/12/10 00:14:40;;;;;;;44.37;32.10;;;;;;;1.88;70.78;100264.59;675224;29;1185;-82
2022/12/10 00:15:01;;;;;;;44.15;32.20;;;;;;;1.87;70.98;100256.03;675171;29;1186;-82
2022/12/10 00:15:22;;;;;;;45.50;32.83;;;;;;;1.87;70.65;100256.03;675268;29;1011;-82
2022/12/10 00:15:42;;;;;;;43.70;32.63;;;;;;;1.93;70.74;100270.00;677831;29;1023;-82
2022/12/10 00:16:05;;;;;;;44.42;32.70;;;;;;;1.89;70.88;100256.13;677750;29;1125;-82
2022/12/10 00:16:27;;;;;;;43.15;31.90;;;;;;;1.90;71.00;100261.31;680597;29;1098;-82
2022/12/10 00:16:47;;;;;;;44.35;32.60;;;;;;;1.91;70.45;100260.50;682610;28;1407;-82
2022/12/10 00:17:08;;;;;;;43.70;32.13;;;;;;;1.93;70.63;100270.91;680043;29;1169;-82
2022/12/10 00:17:29;;;;;;;43.90;32.20;;;;;;;1.87;70.66;100257.69;680798;29;749;-82
2022/12/10 00:17:49;;;;;;;42.45;32.03;;;;;;;1.88;70.35;100257.78;675906;29;1248;-83
2022/12/10 00:18:10;;;;;;;45.22;32.25;;;;;;;1.96;70.89;100270.19;672702;29;1094;-81
2022/12/10 00:18:31;;;;;;;44.87;31.90;;;;;;;1.99;70.68;100272.91;678139;29;955;-82
2022/12/10 00:18:52;;;;;;;45.10;31.38;;;;;;;1.87;70.59;100255.13;680533;29;1188;-82
2022/12/10 00:19:13;;;;;;;41.83;30.52;;;;;;;1.91;70.71;100262.22;677983;29;1185;-82
2022/12/10 00:19:33;;;;;;;43.17;30.98;;;;;;;1.90;70.94;100266.47;677947;29;1248;-82
2022/12/10 00:19:54;;;;;;;43.20;31.13;;;;;;;1.91;70.66;100265.66;675375;29;878;-82
2022/12/10 00:20:15;;;;;;;42.65;31.25;;;;;;;1.88;70.22;100257.78;675106;29;1220;-83
2022/12/10 00:20:37;;;;;;;41.60;30.73;;;;;;;1.90;70.65;100265.59;674970;29;1258;-82
2022/12/10 00:20:57;;;;;;;42.88;31.42;;;;;;;1.97;70.60;100271.97;675460;29;797;-82
2022/12/10 00:21:24;;;;;;;43.45;31.83;;;;;;;1.90;70.37;100255.31;678098;29;1142;-81
2022/12/10 00:21:45;;;;;;;43.15;31.48;;;;;;;1.91;70.77;100259.66;677917;29;1077;-82
2022/12/10 00:22:07;;;;;;;45.13;31.77;;;;;;;1.90;70.43;100261.31;677741;29;1179;-82
2022/12/10 00:22:27;;;;;;;45.80;32.15;;;;;;;1.87;70.30;100256.03;680556;29;1135;-82
2022/12/10 00:22:48;;;;;;;46.10;32.80;;;;;;;1.88;70.46;100262.94;680504;29;1098;-82
2022/12/10 00:23:08;;;;;;;44.90;32.33;;;;;;;1.91;70.70;100268.22;672742;29;1025;-81
2022/12/10 00:23:31;;;;;;;44.13;31.13;;;;;;;1.86;70.57;100254.25;672850;29;836;-82
2022/12/10 00:23:51;;;;;;;46.08;31.67;;;;;;;1.86;70.44;100261.97;677757;29;824;-82
2022/12/10 00:24:12;;;;;;;48.42;32.55;;;;;;;1.83;70.25;100254.06;677630;29;1064;-81
2022/12/10 00:24:33;;;;;;;48.93;33.17;;;;;;;1.84;70.60;100258.41;677799;29;1253;-81
2022/12/10 00:24:53;;;;;;;47.58;32.42;;;;;;;1.85;70.22;100261.88;677680;29;932;-82
2022/12/10 00:25:14;;;;;;;44.70;32.03;;;;;;;1.84;70.61;100253.25;680138;29;1096;-82
2022/12/10 00:25:34;;;;;;;43.97;31.50;;;;;;;1.94;70.58;100272.66;677847;29;891;-82
2022/12/10 00:26:11;;;;;;;44.35;31.77;;;;;;;1.83;70.26;100254.06;675167;29;757;-82
2022/12/10 00:26:36;;;;;;;46.50;32.35;;;;;;;1.85;70.76;100260.19;672479;29;1407;-81
2022/12/10 00:26:56;;;;;;;46.20;32.45;;;;;;;1.88;70.28;100260.34;677760;29;880;-82
2022/12/10 00:27:17;;;;;;;44.77;31.97;;;;;;;1.90;70.33;100268.16;677610;29;1209;-82
2022/12/10 00:27:38;;;;;;;44.23;31.00;;;;;;;1.85;70.54;100262.78;677538;29;1060;-82
2022/12/10 00:27:58;;;;;;;42.80;30.73;;;;;;;1.86;70.00;100258.50;675135;29;1339;-82
2022/12/10 00:28:19;;;;;;;44.53;31.60;;;;;;;1.81;70.77;100258.25;680287;29;1166;-82
2022/12/10 00:28:40;;;;;;;45.80;32.00;;;;;;;1.85;70.44;100252.47;682787;29;1151;-81
2022/12/10 00:29:03;;;;;;;47.08;32.20;;;;;;;1.87;70.22;100260.25;685606;28;1332;-82
2022/12/10 00:29:36;;;;;;;45.72;31.20;;;;;;;1.88;70.31;100262.94;685624;28;1184;-82
2022/12/10 00:29:56;;;;;;;42.70;31.00;;;;;;;1.90;70.59;100263.03;685550;28;1229;-82
2022/12/10 00:30:17;;;;;;;41.05;30.60;;;;;;;1.98;70.44;100271.16;674740;29;1170;-82
2022/12/10 00:30:38;;;;;;;39.97;29.77;;;;;;;1.89;70.79;100264.69;677570;29;1168;-82
2022/12/10 00:31:08;;;;;;;39.22;28.90;;;;;;;1.91;70.43;100257.94;680442;29;725;-82
2022/12/10 00:31:32;;;;;;;41.63;29.50;;;;;;;1.93;70.26;100262.28;677796;29;826;-82
2022/12/10 00:31:52;;;;;;;43.20;29.88;;;;;;;1.93;70.31;100259.72;680206;29;1348;-82
2022/12/10 00:32:13;;;;;;;42.00;30.00;;;;;;;1.92;70.00;100256.28;677419;29;1058;-82
2022/12/10 00:32:33;;;;;;;41.33;30.00;;;;;;;1.90;70.33;100261.31;677628;29;1236;-82
2022/12/10 00:32:54;;;;;;;40.42;30.00;;;;;;;1.91;70.46;100257.94;677692;29;905;-83
2022/12/10 00:33:14;;;;;;;40.65;30.35;;;;;;;1.98;70.09;100269.47;677496;29;1168;-82
2022/12/10 00:33:35;;;;;;;41.77;30.57;;;;;;;2.01;70.22;100272.22;682722;28;1986;-82
2022/12/10 00:33:58;;;;;;;42.30;30.63;;;;;;;1.92;70.01;100258.84;677683;29;1115;-81
2022/12/10 00:34:24;;;;;;;42.83;30.05;;;;;;;1.98;69.94;100259.19;677667;29;1341;-82
2022/12/10 00:34:45;;;;;;;41.35;30.13;;;;;;;1.96;70.42;100260.75;677590;29;1230;-81
2022/12/10 00:35:06;;;;;;;42.25;30.50;;;;;;;1.99;69.94;100262.63;680151;29;1158;-82
2022/12/10 00:35:27;;;;;;;41.47;30.40;;;;;;;1.96;70.17;100254.75;682970;29;812;-82
2022/12/10 00:35:48;;;;;;;41.45;29.98;;;;;;;2.01;70.17;100263.63;674897;29;1201;-82
2022/12/10 00:36:14;;;;;;;40.55;30.25;;;;;;;1.96;70.32;100259.91;677556;29;1124;-82
2022/12/10 00:36:39;;;;;;;43.35;32.00;;;;;;;1.99;70.11;100270.34;680072;29;1042;-82
2022/12/10 00:37:00;;;;;;;43.60;31.15;;;;;;;1.97;70.06;100259.09;680218;29;1147;-82
2022/12/10 00:37:21;;;;;;;43.05;30.35;;;;;;;1.96;70.51;100263.34;680102;28;1089;-82
2022/12/10 00:37:41;;;;;;;41.72;29.35;;;;;;;1.96;69.99;100257.31;674911;29;975;-82
2022/12/10 00:38:03;;;;;;;41.73;29.90;;;;;;;1.97;69.96;100251.38;680154;29;1257;-82
2022/12/10 00:38:23;;;;;;;42.90;30.88;;;;;;;2.00;69.80;100261.81;680355;29;1009;-82
2022/12/10 00:38:44;;;;;;;44.50;32.27;;;;;;;2.08;69.77;100269.97;682084;29;1425;-82
2022/12/10 00:39:06;;;;;;;43.03;31.77;;;;;;;2.03;70.50;100265.44;680210;29;1287;-82
2022/12/10 00:39:26;;;;;;;43.72;32.22;;;;;;;2.05;70.28;100265.53;674956;29;1147;-82
2022/12/10 00:39:47;;;;;;;43.78;31.65;;;;;;;2.03;70.17;100264.59;672366;29;1254;-82
2022/12/10 00:40:10;;;;;;;46.33;31.85;;;;;;;2.04;70.18;100264.63;677590;29;1026;-82
2022/12/10 00:40:32;;;;;;;46.17;30.42;;;;;;;2.03;70.07;100259.44;680320;29;1146;-82
2022/12/10 00:40:53;;;;;;;45.72;30.40;;;;;;;2.04;70.14;100263.78;682860;28;1323;-82
2022/12/10 00:41:14;;;;;;;44.63;30.33;;;;;;;2.04;69.76;100266.34;682790;29;1100;-82
2022/12/10 00:41:35;;;;;;;44.50;31.17;;;;;;;2.07;70.32;100266.50;680088;29;1444;-82
2022/12/10 00:41:55;;;;;;;43.47;31.13;;;;;;;2.02;69.98;100257.66;677781;29;962;-82
2022/12/10 00:42:16;;;;;;;43.15;31.65;;;;;;;2.03;69.94;100262.88;680078;29;1101;-82
2022/12/10 00:42:37;;;;;;;42.27;31.40;;;;;;;2.05;69.78;100262.97;677534;28;1249;-82
2022/12/10 00:42:57;;;;;;;42.27;30.73;;;;;;;2.02;69.79;100266.25;677734;29;970;-82
2022/12/10 00:43:18;;;;;;;43.15;30.33;;;;;;;2.06;70.01;100274.16;677521;29;1251;-82
2022/12/10 00:43:39;;;;;;;41.53;29.80;;;;;;;2.01;69.78;100264.47;677505;29;1293;-82
2022/12/10 00:44:00;;;;;;;42.05;29.92;;;;;;;2.01;69.91;100261.03;680340;29;863;-83
2022/12/10 00:44:21;;;;;;;42.72;30.48;;;;;;;1.95;70.04;100253.84;682648;28;1149;-82
2022/12/10 00:44:41;;;;;;;43.97;31.27;;;;;;;2.03;70.09;100264.59;677683;29;1030;-82
2022/12/10 00:45:04;;;;;;;44.10;31.80;;;;;;;2.06;70.27;100269.88;680183;29;1210;-82
2022/12/10 00:45:24;;;;;;;44.67;32.10;;;;;;;1.99;69.98;100266.09;680210;29;1254;-82
2022/12/10 00:45:45;;;;;;;42.90;31.77;;;;;;;2.00;70.00;100261.81;680162;29;1140;-82
2022/12/10 00:46:07;;;;;;;44.22;31.92;;;;;;;2.05;69.86;100275.84;677525;29;1183;-82
2022/12/10 00:46:28;;;;;;;43.72;31.02;;;;;;;1.98;70.43;100263.44;677589;29;1220;-82
2022/12/10 00:46:48;;;;;;;45.97;30.88;;;;;;;1.99;70.02;100260.06;674853;29;1165;-82
2022/12/10 00:47:09;;;;;;;44.10;30.20;;;;;;;2.01;70.17;100268.75;680146;29;1393;-82
2022/12/10 00:47:29;;;;;;;43.33;30.85;;;;;;;2.03;70.04;100267.16;677765;29;730;-82
2022/12/10 00:47:50;;;;;;;41.97;31.70;;;;;;;2.02;69.96;100270.53;680236;28;1118;-82
2022/12/10 00:48:11;;;;;;;42.72;32.33;;;;;;;1.99;69.87;100257.47;672271;29;1167;-82
2022/12/10 00:48:32;;;;;;;43.67;32.10;;;;;;;2.08;69.65;100276.00;674919;29;1167;-82
2022/12/10 00:48:52;;;;;;;44.63;31.42;;;;;;;1.99;69.90;100255.81;674981;29;1062;-82
2022/12/10 00:49:13;;;;;;;43.27;31.17;;;;;;;2.05;70.13;100265.53;677485;29;1156;-82
2022/12/10 00:49:33;;;;;;;41.75;31.05;;;;;;;2.09;70.19;100272.66;680122;29;994;-82
2022/12/10 00:49:54;;;;;;;43.78;31.85;;;;;;;2.06;69.83;100267.31;677619;29;1091;-83
2022/12/10 00:50:14;;;;;;;45.27;31.83;;;;;;;2.03;69.72;100262.00;677339;29;1427;-82
2022/12/10 00:50:35;;;;;;;46.77;32.40;;;;;;;2.02;69.79;100262.81;677469;29;1276;-81
2022/12/10 00:51:11;;;;;;;45.03;31.73;;;;;;;1.99;69.84;100262.63;672501;29;856;-82
2022/12/10 00:51:32;;;;;;;42.13;30.15;;;;;;;1.97;69.91;100267.72;679985;29;1357;-82
2022/12/10 00:51:52;;;;;;;41.45;30.42;;;;;;;2.00;69.88;100261.81;682821;29;1074;-82
2022/12/10 00:52:13;;;;;;;43.67;31.73;;;;;;;1.95;69.49;100264.13;688024;28;1290;-82
2022/12/10 00:52:34;;;;;;;44.13;32.50;;;;;;;2.02;70.00;100273.09;682776;28;1258;-82
2022/12/10 00:52:54;;;;;;;45.50;32.83;;;;;;;1.93;70.21;100259.72;685518;28;1229;-82
2022/12/10 00:53:15;;;;;;;44.60;32.43;;;;;;;1.94;69.80;100258.94;680163;29;1198;-83
2022/12/10 00:53:37;;;;;;;45.30;32.10;;;;;;;1.98;70.00;100273.72;682699;29;1912;-82
2022/12/10 00:53:59;;;;;;;41.88;30.58;;;;;;;1.93;70.08;100264.84;679483;29;1351;-82
2022/12/10 00:54:19;;;;;;;42.05;30.48;;;;;;;1.92;70.10;100264.00;682738;29;1180;-82
2022/12/10 00:54:40;;;;;;;40.05;29.80;;;;;;;1.98;69.81;100268.59;680168;29;1234;-82
2022/12/10 00:55:01;;;;;;;41.97;30.88;;;;;;;1.96;70.32;100270.19;682893;29;832;-82
2022/12/10 00:55:21;;;;;;;42.17;31.48;;;;;;;1.95;69.88;100261.56;682804;29;1206;-82
2022/12/10 00:55:42;;;;;;;41.33;31.58;;;;;;;1.93;69.95;100260.59;677455;29;1035;-82
2022/12/10 00:56:04;;;;;;;40.13;30.63;;;;;;;2.01;70.01;100271.34;674934;29;1278;-82
2022/12/10 00:56:27;;;;;;;40.00;30.23;;;;;;;1.97;69.85;100275.44;672369;29;1114;-82
2022/12/10 00:56:48;;;;;;;40.22;29.70;;;;;;;1.95;69.75;100268.41;680029;29;1274;-82
2022/12/10 00:57:09;;;;;;;41.97;30.08;;;;;;;2.02;70.13;100278.25;680106;29;1159;-82
2022/12/10 00:57:29;;;;;;;43.20;30.83;;;;;;;1.97;69.56;100264.25;680410;29;697;-82
2022/12/10 00:57:50;;;;;;;43.38;31.25;;;;;;;1.95;69.88;100259.00;675082;29;820;-82
2022/12/10 00:58:31;;;;;;;41.53;30.75;;;;;;;2.07;69.79;100281.06;679901;29;1140;-82
2022/12/10 00:59:06;;;;;;;42.67;31.58;;;;;;;1.95;69.96;100259.00;680125;29;1163;-82
2022/12/10 00:59:27;;;;;;;41.00;30.60;;;;;;;2.00;69.92;100266.97;677624;29;1325;-82
2022/12/10 00:59:47;;;;;;;40.42;29.75;;;;;;;1.95;69.88;100252.97;674917;29;1036;-82
2022/12/10 01:00:09;;;;;;;39.35;29.45;;;;;;;1.98;69.95;100260.84;677501;29;1218;-82
2022/12/10 01:00:29;;;;;;;41.88;30.40;;;;;;;2.08;69.77;100281.13;677574;29;1104;-81
2022/12/10 01:00:50;;;;;;;45.00;32.08;;;;;;;1.99;70.02;100268.66;677740;29;928;-82
2022/12/10 01:01:23;;;;;;;48.40;33.95;;;;;;;2.04;69.91;100268.91;674949;29;1023;-82
2022/12/10 01:01:45;;;;;;;47.20;33.58;;;;;;;1.98;69.67;100254.03;680201;29;1426;-82
2022/12/10 01:02:06;;;;;;;46.17;32.37;;;;;;;1.99;69.67;100262.63;675022;29;1040;-83
2022/12/10 01:02:27;;;;;;;44.80;31.35;;;;;;;2.02;69.62;100270.53;675104;29;864;-82
2022/12/10 01:02:47;;;;;;;45.05;30.90;;;;;;;2.03;69.89;100268.03;675041;29;1102;-82
2022/12/10 01:03:08;;;;;;;44.43;30.20;;;;;;;2.06;69.64;100271.59;674873;28;1213;-82
2022/12/10 01:03:28;;;;;;;46.90;31.15;;;;;;;2.03;69.54;100269.72;680375;29;1154;-83
2022/12/10 01:03:51;;;;;;;46.78;32.13;;;;;;;2.05;69.79;100262.97;682762;28;1092;-82
2022/12/10 01:04:15;;;;;;;45.25;32.53;;;;;;;2.03;69.71;100267.16;680060;29;1213;-82
2022/12/10 01:04:36;;;;;;;43.88;32.70;;;;;;;2.04;69.55;100277.50;674978;29;1246;-82
2022/12/10 01:04:56;;;;;;;44.13;33.47;;;;;;;2.06;69.64;100271.59;677636;29;752;-82
2022/12/10 01:05:18;;;;;;;43.42;32.50;;;;;;;2.07;70.03;100273.34;677493;29;1699;-82
2022/12/10 01:05:38;;;;;;;43.05;31.23;;;;;;;2.08;69.78;100276.00;677504;29;1288;-83
2022/12/10 01:06:08;;;;;;;45.80;30.60;;;;;;;2.05;69.54;100275.84;677679;29;840;-82
2022/12/10 01:06:40;;;;;;;47.15;32.42;;;;;;;2.04;69.70;100268.91;680191;29;1413;-82
2022/12/10 01:07:01;;;;;;;44.42;32.25;;;;;;;2.06;69.61;100274.16;680081;29;1057;-82
2022/12/10 01:07:23;;;;;;;43.95;31.70;;;;;;;2.06;69.40;100277.59;680196;28;1253;-82
2022/12/10 01:07:44;;;;;;;42.88;32.05;;;;;;;2.05;69.36;100273.25;679613;29;2035;-82
2022/12/10 01:08:04;;;;;;;43.20;32.30;;;;;;;2.03;69.63;100273.16;680193;29;1118;-82
2022/12/10 01:08:25;;;;;;;43.47;32.22;;;;;;;2.02;69.26;100273.09;680105;29;1093;-82
2022/12/10 01:08:47;;;;;;;43.80;31.48;;;;;;;2.01;69.68;100279.94;674868;29;1154;-81
2022/12/10 01:09:10;;;;;;;43.95;31.70;;;;;;;2.02;69.71;100283.41;680051;29;1172;-82
2022/12/10 01:09:31;;;;;;;44.08;31.45;;;;;;;2.02;69.82;100281.69;677487;29;1362;-82
2022/12/10 01:09:51;;;;;;;43.78;31.20;;;;;;;1.99;69.34;100270.34;677616;29;1362;-82
2022/12/10 01:10:12;;;;;;;43.33;31.10;;;;;;;2.01;69.67;100281.63;674905;29;1066;-82
2022/12/10 01:10:33;;;;;;;43.30;31.47;;;;;;;2.04;69.48;100279.22;675030;29;1195;-82
2022/12/10 01:10:54;;;;;;;43.42;30.98;;;;;;;1.98;69.47;100264.34;672445;29;901;-82
2022/12/10 01:11:17;;;;;;;44.27;30.90;;;;;;;1.95;69.40;100265.84;680054;29;1285;-82
2022/12/10 01:11:40;;;;;;;46.38;31.95;;;;;;;1.96;69.47;100265.91;679978;29;1117;-82
2022/12/10 01:12:02;;;;;;;47.00;33.30;;;;;;;2.04;69.20;100280.09;680256;29;753;-82
2022/12/10 01:12:23;;;;;;;44.90;33.70;;;;;;;2.05;69.41;100275.84;680090;29;1133;-82
2022/12/10 01:12:44;;;;;;;44.13;32.85;;;;;;;1.98;69.46;100273.72;677636;29;947;-83
2022/12/10 01:13:05;;;;;;;45.05;33.53;;;;;;;2.05;69.24;100280.97;680319;29;1049;-83
2022/12/10 01:13:25;;;;;;;45.03;33.78;;;;;;;2.05;69.43;100278.41;677575;29;1464;-82
2022/12/10 01:13:47;;;;;;;46.38;34.30;;;;;;;2.06;69.64;100285.31;680076;29;1903;-82
2022/12/10 01:14:11;;;;;;;46.63;33.88;;;;;;;2.04;69.14;100274.94;680164;28;1327;-82
2022/12/10 01:14:33;;;;;;;46.45;33.72;;;;;;;2.08;69.42;100281.13;672451;29;1078;-82
2022/12/10 01:14:54;;;;;;;46.22;33.65;;;;;;;1.97;69.48;100269.38;676087;29;1093;-82
2022/12/10 01:15:14;;;;;;;46.80;33.90;;;;;;;2.00;69.37;100282.41;682282;29;1077;-82
2022/12/10 01:15:39;;;;;;;46.67;33.10;;;;;;;1.97;69.32;100272.84;687690;28;1181;-82
2022/12/10 01:16:03;;;;;;;47.33;33.38;;;;;;;1.99;69.65;100276.41;680085;29;954;-81
2022/12/10 01:16:25;;;;;;;45.75;32.90;;;;;;;1.95;69.83;100271.00;680003;29;985;-82
2022/12/10 01:16:46;;;;;;;45.95;33.67;;;;;;;1.97;69.71;100277.09;682633;28;1121;-82
2022/12/10 01:17:07;;;;;;;46.10;34.10;;;;;;;1.99;69.67;100280.66;680246;29;1186;-83
2022/12/10 01:17:27;;;;;;;46.67;33.90;;;;;;;1.96;69.87;100271.06;672557;29;1326;-82
2022/12/10 01:17:48;;;;;;;46.35;33.47;;;;;;;2.03;69.44;100282.59;677335;29;1139;-82
2022/12/10 01:18:08;;;;;;;46.57;32.60;;;;;;;2.01;69.39;100279.06;677437;29;1149;-82
2022/12/10 01:18:29;;;;;;;47.55;33.17;;;;;;;1.98;69.33;100273.72;682698;29;1104;-80
2022/12/10 01:18:54;;;;;;;48.95;33.90;;;;;;;1.97;69.25;100269.38;680152;29;1285;-81
2022/12/10 01:19:19;;;;;;;47.10;33.80;;;;;;;1.97;69.25;100270.28;680353;29;1144;-83
2022/12/10 01:19:39;;;;;;;45.33;32.72;;;;;;;2.00;69.49;100272.13;674958;29;975;-82
2022/12/10 01:20:00;;;;;;;44.70;32.60;;;;;;;2.01;69.08;100273.91;677568;29;1174;-82
2022/12/10 01:20:20;;;;;;;45.67;32.97;;;;;;;2.01;69.26;100271.34;679863;29;1290;-81
2022/12/10 01:20:42;;;;;;;46.92;33.50;;;;;;;2.01;69.39;100271.34;679952;29;1355;-81
2022/12/10 01:21:15;;;;;;;47.30;33.47;;;;;;;2.00;69.48;100275.59;685458;29;1182;-81
2022/12/10 01:21:36;;;;;;;49.10;34.22;;;;;;;2.03;69.04;100277.44;682302;29;997;-83
2022/12/10 01:21:57;;;;;;;50.47;34.28;;;;;;;2.10;69.33;100291.53;682650;29;1333;-82
2022/12/10 01:22:18;;;;;;;49.20;34.67;;;;;;;2.03;69.42;100272.31;685041;29;1103;-81
2022/12/10 01:22:38;;;;;;;46.95;34.60;;;;;;;2.00;69.49;100267.88;681019;29;1238;-82
2022/12/10 01:22:59;;;;;;;46.53;34.37;;;;;;;2.00;68.86;100269.53;678313;29;891;-82
2022/12/10 01:23:20;;;;;;;45.80;33.53;;;;;;;2.09;69.13;100282.94;683100;29;1013;-82
2022/12/10 01:23:42;;;;;;;45.08;33.70;;;;;;;2.01;69.51;100268.75;686015;28;1117;-82
2022/12/10 01:24:03;;;;;;;46.65;33.83;;;;;;;2.01;69.46;100269.63;678102;29;1346;-82
2022/12/10 01:24:26;;;;;;;47.17;33.72;;;;;;;2.03;68.91;100272.31;675508;29;1452;-81
2022/12/10 01:24:46;;;;;;;48.35;33.70;;;;;;;2.02;69.25;100273.09;677839;29;1152;-82
2022/12/10 01:25:08;;;;;;;47.30;33.47;;;;;;;2.04;69.23;100274.06;685859;28;1129;-83
2022/12/10 01:25:28;;;;;;;46.55;32.83;;;;;;;2.05;69.12;100280.97;678268;29;879;-82
2022/12/10 01:25:49;;;;;;;44.90;32.30;;;;;;;2.02;69.48;100273.09;678080;29;1137;-82
2022/12/10 01:26:13;;;;;;;45.30;32.90;;;;;;;2.09;69.55;100287.19;683412;29;1021;-82
2022/12/10 01:26:35;;;;;;;46.45;34.00;;;;;;;2.10;69.37;100286.38;683330;29;1057;-82
2022/12/10 01:26:56;;;;;;;47.17;34.05;;;;;;;2.06;69.30;100277.59;680613;29;1321;-81
2022/12/10 01:27:16;;;;;;;48.35;35.25;;;;;;;2.11;69.12;100291.63;675369;29;1120;-81
2022/12/10 01:27:37;;;;;;;48.40;35.27;;;;;;;2.03;69.25;100272.31;683166;28;903;-81
2022/12/10 01:27:58;;;;;;;48.27;34.97;;;;;;;2.05;69.63;100270.69;678022;29;1179;-82
2022/12/10 01:28:18;;;;;;;47.97;33.95;;;;;;;2.04;69.25;100274.94;683714;28;1136;-80
2022/12/10 01:28:40;;;;;;;46.97;33.60;;;;;;;2.04;69.65;100277.50;681067;29;1266;-80
2022/12/10 01:29:03;;;;;;;49.80;34.00;;;;;;;2.05;69.48;100275.84;680950;29;1110;-81
2022/12/10 01:29:24;;;;;;;49.50;34.33;;;;;;;2.05;69.42;100275.84;681018;29;991;-81
2022/12/10 01:29:44;;;;;;;51.38;34.88;;;;;;;2.07;69.33;100279.38;680759;29;1194;-81
2022/12/10 01:30:05;;;;;;;47.65;34.60;;;;;;;2.11;69.53;100280.44;675766;29;1038;-81
2022/12/10 01:30:26;;;;;;;47.88;34.28;;;;;;;2.08;69.18;100280.28;680682;29;1230;-82
2022/12/10 01:30:48;;;;;;;47.22;34.08;;;;;;;2.05;69.43;100280.97;678264;29;1320;-82
2022/12/10 01:31:15;;;;;;;46.90;33.42;;;;;;;2.10;69.53;100278.66;672817;29;1234;-82
2022/12/10 01:31:37;;;;;;;44.80;32.60;;;;;;;2.08;69.40;100275.13;678163;29;1010;-82
2022/12/10 01:31:59;;;;;;;45.72;33.67;;;;;;;2.12;69.25;100279.63;680742;29;916;-82
2022/12/10 01:32:20;;;;;;;46.30;34.13;;;;;;;2.07;69.12;100276.78;680745;29;1093;-83
2022/12/10 01:32:40;;;;;;;51.50;34.83;;;;;;;2.10;69.21;100274.41;675409;29;1107;-81
2022/12/10 01:33:01;;;;;;;51.33;34.70;;;;;;;2.14;69.29;100281.47;683396;29;1251;-82
2022/12/10 01:33:22;;;;;;;51.95;34.35;;;;;;;2.13;69.34;100279.72;680882;29;926;-82
2022/12/10 01:33:43;;;;;;;48.92;33.72;;;;;;;2.14;69.60;100278.91;685970;28;1910;-83
2022/12/10 01:34:05;;;;;;;50.08;34.10;;;;;;;2.09;69.63;100275.22;677985;29;1122;-82
2022/12/10 01:34:26;;;;;;;48.92;35.17;;;;;;;2.09;69.48;100267.50;675558;29;1250;-82
2022/12/10 01:34:50;;;;;;;47.83;35.10;;;;;;;2.15;69.18;100282.38;685971;28;1151;-82
2022/12/10 01:35:10;;;;;;;48.15;34.45;;;;;;;2.17;69.37;100281.66;685931;28;1180;-82
2022/12/10 01:35:31;;;;;;;48.35;34.25;;;;;;;2.15;69.48;100283.25;686029;28;1162;-82
2022/12/10 01:35:51;;;;;;;49.80;35.20;;;;;;;2.16;69.11;100282.44;683446;29;894;-82
2022/12/10 01:36:29;;;;;;;48.10;35.05;;;;;;;2.16;69.39;100274.72;680661;29;1111;-82
2022/12/10 01:36:52;;;;;;;45.03;33.33;;;;;;;2.14;69.35;100281.47;680679;29;1157;-83
2022/12/10 01:37:12;;;;;;;46.22;32.97;;;;;;;2.15;69.33;100275.53;683231;28;959;-83
2022/12/10 01:37:33;;;;;;;47.00;33.33;;;;;;;2.16;69.65;100276.41;685916;28;1284;-82
2022/12/10 01:37:54;;;;;;;49.08;34.58;;;;;;;2.21;69.33;100292.13;680605;29;1317;-82
2022/12/10 01:38:14;;;;;;;47.42;34.85;;;;;;;2.23;69.54;100293.06;675528;29;1170;-82
2022/12/10 01:38:35;;;;;;;48.10;34.30;;;;;;;2.18;69.62;100282.53;680649;29;1136;-82
2022/12/10 01:39:00;;;;;;;48.60;34.05;;;;;;;2.20;69.16;100285.19;683385;28;1236;-82
2022/12/10 01:39:23;;;;;;;49.70;34.60;;;;;;;2.12;69.47;100272.78;680592;29;1214;-82
2022/12/10 01:39:43;;;;;;;48.35;35.08;;;;;;;2.21;69.74;100289.53;673088;29;1120;-83
2022/12/10 01:40:05;;;;;;;47.80;34.93;;;;;;;2.17;69.68;100281.66;672981;29;1219;-83
2022/12/10 01:40:25;;;;;;;45.95;34.35;;;;;;;2.17;69.63;100280.75;678219;29;1171;-82
2022/12/10 01:40:46;;;;;;;46.03;34.90;;;;;;;2.15;69.42;100283.25;678015;29;1130;-82
2022/12/10 01:41:12;;;;;;;44.63;34.38;;;;;;;2.16;69.50;100284.16;678038;29;1207;-82
2022/12/10 01:41:35;;;;;;;46.42;34.50;;;;;;;2.20;69.37;100285.19;680695;29;1308;-83
2022/12/10 01:41:58;;;;;;;46.38;33.88;;;;;;;2.16;69.56;100282.44;678056;29;1383;-82
2022/12/10 01:42:18;;;;;;;47.30;34.08;;;;;;;2.16;69.02;100274.72;675274;29;1091;-82
2022/12/10 01:42:40;;;;;;;47.45;34.38;;;;;;;2.15;69.13;100277.22;683247;28;1366;-82